Badger, Canada
Current Conditions -  °F | °C
As of 11:00 AM on Monday 22 Dec 2014 (Local Time) from CYDF Reporting Station
Few Clouds Few Clouds  
Wind Chill: 10°   Ceiling: Unl
Heat Index: 10°   Visibility: 15mi
Dew Point:   Wind: 2mph
Humidity: 85%   Direction: 60°ENE
Pressure: 30.48"   Gusts: NA
Location:  48.97°N, 56.07°W
Report Text: CYDF 221400Z 06002KT 15SM FEW005 M12/M14 A3048 RMK SF1 SLP323
Loading
Personal Weather Stations






























Interactive Weather Map New forecast layout! Learn more

10-Day Weather Forecast

Advertisements
Track Severe Weather on mobile